sensor_id;sensor_type;location;lat;lon;timestamp;temperature;humidity
13409;DHT22;6775;49.574;11.170;2023-05-28T00:00:23;11.40;99.90
13409;DHT22;6775;49.574;11.170;2023-05-28T00:02:53;11.40;99.90
13409;DHT22;6775;49.574;11.170;2023-05-28T00:05:23;11.30;99.90
13409;DHT22;6775;49.574;11.170;2023-05-28T00:07:51;11.30;99.90
13409;DHT22;6775;49.574;11.170;2023-05-28T00:10:19;11.30;99.90
13409;DHT22;6775;49.574;11.170;2023-05-28T00:12:46;11.20;99.90
13409;DHT22;6775;49.574;11.170;2023-05-28T00:15:14;11.20;99.90
13409;DHT22;6775;49.574;11.170;2023-05-28T00:17:43;11.10;99.90
13409;DHT22;6775;49.574;11.170;2023-05-28T00:20:11;11.00;99.90
13409;DHT22;6775;49.574;11.170;2023-05-28T00:22:41;10.80;99.90
13409;DHT22;6775;49.574;11.170;2023-05-28T00:25:08;10.80;99.90
13409;DHT22;6775;49.574;11.170;2023-05-28T00:27:37;10.80;99.90
13409;DHT22;6775;49.574;11.170;2023-05-28T00:30:06;10.80;99.90
13409;DHT22;6775;49.574;11.170;2023-05-28T00:32:34;10.80;99.90
13409;DHT22;6775;49.574;11.170;2023-05-28T00:35:04;10.70;99.90
13409;DHT22;6775;49.574;11.170;2023-05-28T00:37:32;10.60;99.90
13409;DHT22;6775;49.574;11.170;2023-05-28T00:40:00;10.50;99.90
13409;DHT22;6775;49.574;11.170;2023-05-28T00:42:28;10.40;99.90
13409;DHT22;6775;49.574;11.170;2023-05-28T00:44:55;10.40;99.90
13409;DHT22;6775;49.574;11.170;2023-05-28T00:47:23;10.40;99.90
13409;DHT22;6775;49.574;11.170;2023-05-28T00:49:52;10.50;99.90
13409;DHT22;6775;49.574;11.170;2023-05-28T00:52:24;10.50;99.90
13409;DHT22;6775;49.574;11.170;2023-05-28T00:54:52;10.40;99.90
13409;DHT22;6775;49.574;11.170;2023-05-28T00:57:22;10.40;99.90
13409;DHT22;6775;49.574;11.170;2023-05-28T00:59:51;10.40;99.90
13409;DHT22;6775;49.574;11.170;2023-05-28T01:02:21;10.40;99.90
13409;DHT22;6775;49.574;11.170;2023-05-28T01:04:50;10.50;99.90
13409;DHT22;6775;49.574;11.170;2023-05-28T01:07:18;10.50;99.90
13409;DHT22;6775;49.574;11.170;2023-05-28T01:09:47;10.50;99.90
13409;DHT22;6775;49.574;11.170;2023-05-28T01:12:15;10.60;99.90
13409;DHT22;6775;49.574;11.170;2023-05-28T01:14:44;10.60;99.90
13409;DHT22;6775;49.574;11.170;2023-05-28T01:17:12;10.60;99.90
13409;DHT22;6775;49.574;11.170;2023-05-28T01:19:41;10.60;99.90
13409;DHT22;6775;49.574;11.170;2023-05-28T01:22:16;10.50;99.90
13409;DHT22;6775;49.574;11.170;2023-05-28T01:24:46;10.40;99.90
13409;DHT22;6775;49.574;11.170;2023-05-28T01:27:15;10.30;99.90
13409;DHT22;6775;49.574;11.170;2023-05-28T01:29:43;10.30;99.90
13409;DHT22;6775;49.574;11.170;2023-05-28T01:32:11;10.30;99.90
13409;DHT22;6775;49.574;11.170;2023-05-28T01:34:38;10.30;99.90
13409;DHT22;6775;49.574;11.170;2023-05-28T01:37:08;10.20;99.90
13409;DHT22;6775;49.574;11.170;2023-05-28T01:39:42;10.30;99.90
13409;DHT22;6775;49.574;11.170;2023-05-28T01:42:12;10.30;99.90
13409;DHT22;6775;49.574;11.170;2023-05-28T01:44:41;10.30;99.90
13409;DHT22;6775;49.574;11.170;2023-05-28T01:47:11;10.20;99.90
13409;DHT22;6775;49.574;11.170;2023-05-28T01:49:40;10.10;99.90
13409;DHT22;6775;49.574;11.170;2023-05-28T01:52:08;10.00;99.90
13409;DHT22;6775;49.574;11.170;2023-05-28T01:54:36;9.90;99.90
13409;DHT22;6775;49.574;11.170;2023-05-28T01:57:04;9.90;99.90
13409;DHT22;6775;49.574;11.170;2023-05-28T01:59:33;9.90;99.90
13409;DHT22;6775;49.574;11.170;2023-05-28T02:02:01;9.90;99.90
13409;DHT22;6775;49.574;11.170;2023-05-28T02:04:29;9.80;99.90
13409;DHT22;6775;49.574;11.170;2023-05-28T02:06:57;9.80;99.90
13409;DHT22;6775;49.574;11.170;2023-05-28T02:09:25;9.90;99.90
13409;DHT22;6775;49.574;11.170;2023-05-28T02:11:53;9.90;99.90
13409;DHT22;6775;49.574;11.170;2023-05-28T02:14:21;9.90;99.90
13409;DHT22;6775;49.574;11.170;2023-05-28T02:16:50;9.80;99.90
13409;DHT22;6775;49.574;11.170;2023-05-28T02:19:19;9.70;99.90
13409;DHT22;6775;49.574;11.170;2023-05-28T02:21:47;9.70;99.90
13409;DHT22;6775;49.574;11.170;2023-05-28T02:24:15;9.60;99.90
13409;DHT22;6775;49.574;11.170;2023-05-28T02:26:43;9.50;99.90
13409;DHT22;6775;49.574;11.170;2023-05-28T02:29:11;9.50;99.90
13409;DHT22;6775;49.574;11.170;2023-05-28T02:31:40;9.40;99.90
13409;DHT22;6775;49.574;11.170;2023-05-28T02:34:09;9.30;99.90
13409;DHT22;6775;49.574;11.170;2023-05-28T02:36:37;9.30;99.90
13409;DHT22;6775;49.574;11.170;2023-05-28T02:39:05;9.20;99.90
13409;DHT22;6775;49.574;11.170;2023-05-28T02:41:33;9.30;99.90
13409;DHT22;6775;49.574;11.170;2023-05-28T02:44:01;9.30;99.90
13409;DHT22;6775;49.574;11.170;2023-05-28T02:46:29;9.20;99.90
13409;DHT22;6775;49.574;11.170;2023-05-28T02:48:57;9.20;99.90
13409;DHT22;6775;49.574;11.170;2023-05-28T02:51:26;9.10;99.90
13409;DHT22;6775;49.574;11.170;2023-05-28T02:53:54;9.10;99.90
13409;DHT22;6775;49.574;11.170;2023-05-28T02:56:22;9.20;99.90
13409;DHT22;6775;49.574;11.170;2023-05-28T02:58:50;9.10;99.90
13409;DHT22;6775;49.574;11.170;2023-05-28T03:01:19;9.10;99.90
13409;DHT22;6775;49.574;11.170;2023-05-28T03:03:47;9.00;99.90
13409;DHT22;6775;49.574;11.170;2023-05-28T03:06:14;9.00;99.90
13409;DHT22;6775;49.574;11.170;2023-05-28T03:08:44;8.90;99.90
13409;DHT22;6775;49.574;11.170;2023-05-28T03:11:12;8.90;99.90
13409;DHT22;6775;49.574;11.170;2023-05-28T03:13:39;8.90;99.90
13409;DHT22;6775;49.574;11.170;2023-05-28T03:16:07;8.90;99.90
13409;DHT22;6775;49.574;11.170;2023-05-28T03:18:35;8.90;99.90
13409;DHT22;6775;49.574;11.170;2023-05-28T03:21:03;8.80;99.90
13409;DHT22;6775;49.574;11.170;2023-05-28T03:23:31;8.80;99.90
13409;DHT22;6775;49.574;11.170;2023-05-28T03:26:00;8.70;99.90
13409;DHT22;6775;49.574;11.170;2023-05-28T03:28:28;8.70;99.90
13409;DHT22;6775;49.574;11.170;2023-05-28T03:30:56;8.70;99.90
13409;DHT22;6775;49.574;11.170;2023-05-28T03:33:25;8.80;99.90
13409;DHT22;6775;49.574;11.170;2023-05-28T03:35:52;8.80;99.90
13409;DHT22;6775;49.574;11.170;2023-05-28T03:38:21;8.90;99.90
13409;DHT22;6775;49.574;11.170;2023-05-28T03:40:49;8.90;99.90
13409;DHT22;6775;49.574;11.170;2023-05-28T03:43:18;8.90;99.90
13409;DHT22;6775;49.574;11.170;2023-05-28T03:45:46;9.00;99.90
13409;DHT22;6775;49.574;11.170;2023-05-28T03:48:14;9.10;99.90
13409;DHT22;6775;49.574;11.170;2023-05-28T03:50:42;9.10;99.90
13409;DHT22;6775;49.574;11.170;2023-05-28T03:53:10;9.20;99.90
13409;DHT22;6775;49.574;11.170;2023-05-28T03:55:37;9.10;99.90
13409;DHT22;6775;49.574;11.170;2023-05-28T03:58:05;9.00;99.90
13409;DHT22;6775;49.574;11.170;2023-05-28T04:00:34;9.00;99.90
13409;DHT22;6775;49.574;11.170;2023-05-28T04:03:02;9.00;99.90
13409;DHT22;6775;49.574;11.170;2023-05-28T04:05:30;9.00;99.90
13409;DHT22;6775;49.574;11.170;2023-05-28T04:07:59;9.10;99.90
13409;DHT22;6775;49.574;11.170;2023-05-28T04:10:27;9.10;99.90
13409;DHT22;6775;49.574;11.170;2023-05-28T04:12:55;9.20;99.90
13409;DHT22;6775;49.574;11.170;2023-05-28T04:15:23;9.30;99.90
13409;DHT22;6775;49.574;11.170;2023-05-28T04:17:52;9.40;99.90
13409;DHT22;6775;49.574;11.170;2023-05-28T04:20:20;9.50;99.90
13409;DHT22;6775;49.574;11.170;2023-05-28T04:22:48;9.70;99.90
13409;DHT22;6775;49.574;11.170;2023-05-28T04:25:16;9.80;99.90
13409;DHT22;6775;49.574;11.170;2023-05-28T04:27:45;9.90;99.90
13409;DHT22;6775;49.574;11.170;2023-05-28T04:30:13;10.00;99.90
13409;DHT22;6775;49.574;11.170;2023-05-28T04:32:41;10.10;99.90
13409;DHT22;6775;49.574;11.170;2023-05-28T04:35:10;10.20;99.90
13409;DHT22;6775;49.574;11.170;2023-05-28T04:37:38;10.40;99.90
13409;DHT22;6775;49.574;11.170;2023-05-28T04:40:07;10.50;99.90
13409;DHT22;6775;49.574;11.170;2023-05-28T04:42:38;10.60;99.90
13409;DHT22;6775;49.574;11.170;2023-05-28T04:45:07;10.70;99.90
13409;DHT22;6775;49.574;11.170;2023-05-28T04:47:36;10.80;99.90
13409;DHT22;6775;49.574;11.170;2023-05-28T04:50:05;10.90;99.90
13409;DHT22;6775;49.574;11.170;2023-05-28T04:52:34;11.10;99.90
13409;DHT22;6775;49.574;11.170;2023-05-28T04:55:05;11.20;99.90
13409;DHT22;6775;49.574;11.170;2023-05-28T04:57:33;11.30;99.90
13409;DHT22;6775;49.574;11.170;2023-05-28T05:00:01;11.50;99.90
13409;DHT22;6775;49.574;11.170;2023-05-28T05:02:31;11.50;99.90
13409;DHT22;6775;49.574;11.170;2023-05-28T05:04:59;11.60;99.90
13409;DHT22;6775;49.574;11.170;2023-05-28T05:07:27;11.70;99.90
13409;DHT22;6775;49.574;11.170;2023-05-28T05:09:56;11.80;99.90
13409;DHT22;6775;49.574;11.170;2023-05-28T05:12:24;11.90;99.90
13409;DHT22;6775;49.574;11.170;2023-05-28T05:14:52;12.00;99.90
13409;DHT22;6775;49.574;11.170;2023-05-28T05:17:19;12.20;99.90
13409;DHT22;6775;49.574;11.170;2023-05-28T05:19:47;12.30;99.90
13409;DHT22;6775;49.574;11.170;2023-05-28T05:22:15;12.40;99.90
13409;DHT22;6775;49.574;11.170;2023-05-28T05:24:43;12.50;99.90
13409;DHT22;6775;49.574;11.170;2023-05-28T05:27:12;12.60;99.90
13409;DHT22;6775;49.574;11.170;2023-05-28T05:29:40;12.70;99.90
13409;DHT22;6775;49.574;11.170;2023-05-28T05:32:09;12.80;99.90
13409;DHT22;6775;49.574;11.170;2023-05-28T05:34:37;12.90;99.90
13409;DHT22;6775;49.574;11.170;2023-05-28T05:37:05;13.00;99.90
13409;DHT22;6775;49.574;11.170;2023-05-28T05:39:33;13.10;99.90
13409;DHT22;6775;49.574;11.170;2023-05-28T05:42:01;13.20;99.90
13409;DHT22;6775;49.574;11.170;2023-05-28T05:44:30;13.30;99.90
13409;DHT22;6775;49.574;11.170;2023-05-28T05:46:58;13.40;99.90
13409;DHT22;6775;49.574;11.170;2023-05-28T05:49:26;13.60;99.90
13409;DHT22;6775;49.574;11.170;2023-05-28T05:51:53;13.60;99.90
13409;DHT22;6775;49.574;11.170;2023-05-28T05:54:21;13.70;99.90
13409;DHT22;6775;49.574;11.170;2023-05-28T05:56:49;13.80;99.90
13409;DHT22;6775;49.574;11.170;2023-05-28T05:59:19;13.90;99.90
13409;DHT22;6775;49.574;11.170;2023-05-28T06:01:48;14.00;99.90
13409;DHT22;6775;49.574;11.170;2023-05-28T06:04:16;14.10;99.90
13409;DHT22;6775;49.574;11.170;2023-05-28T06:06:44;14.30;99.90
13409;DHT22;6775;49.574;11.170;2023-05-28T06:09:12;14.40;99.90
13409;DHT22;6775;49.574;11.170;2023-05-28T06:11:40;14.40;99.90
13409;DHT22;6775;49.574;11.170;2023-05-28T06:14:07;14.60;99.90
13409;DHT22;6775;49.574;11.170;2023-05-28T06:16:35;14.80;99.90
13409;DHT22;6775;49.574;11.170;2023-05-28T06:19:04;15.00;99.90
13409;DHT22;6775;49.574;11.170;2023-05-28T06:21:32;15.10;99.90
13409;DHT22;6775;49.574;11.170;2023-05-28T06:24:00;15.20;99.90
13409;DHT22;6775;49.574;11.170;2023-05-28T06:26:28;15.40;99.90
13409;DHT22;6775;49.574;11.170;2023-05-28T06:28:56;15.50;99.90
13409;DHT22;6775;49.574;11.170;2023-05-28T06:31:24;15.60;99.90
13409;DHT22;6775;49.574;11.170;2023-05-28T06:33:51;15.80;99.90
13409;DHT22;6775;49.574;11.170;2023-05-28T06:36:21;15.90;99.90
13409;DHT22;6775;49.574;11.170;2023-05-28T06:38:49;16.10;99.90
13409;DHT22;6775;49.574;11.170;2023-05-28T06:41:17;16.30;99.90
13409;DHT22;6775;49.574;11.170;2023-05-28T06:43:45;16.40;99.90
13409;DHT22;6775;49.574;11.170;2023-05-28T06:46:13;16.50;99.90
13409;DHT22;6775;49.574;11.170;2023-05-28T06:48:42;16.70;99.90
13409;DHT22;6775;49.574;11.170;2023-05-28T06:51:10;16.80;99.90
13409;DHT22;6775;49.574;11.170;2023-05-28T06:53:39;16.90;99.90
13409;DHT22;6775;49.574;11.170;2023-05-28T06:56:07;17.00;99.90
13409;DHT22;6775;49.574;11.170;2023-05-28T06:58:35;17.20;99.90
13409;DHT22;6775;49.574;11.170;2023-05-28T07:01:03;17.30;99.90
13409;DHT22;6775;49.574;11.170;2023-05-28T07:03:31;17.40;99.90
13409;DHT22;6775;49.574;11.170;2023-05-28T07:05:59;17.50;99.90
13409;DHT22;6775;49.574;11.170;2023-05-28T07:08:27;17.60;99.90
13409;DHT22;6775;49.574;11.170;2023-05-28T07:10:56;17.80;99.90
13409;DHT22;6775;49.574;11.170;2023-05-28T07:13:24;17.90;99.90
13409;DHT22;6775;49.574;11.170;2023-05-28T07:15:52;18.00;99.90
13409;DHT22;6775;49.574;11.170;2023-05-28T07:18:20;18.10;99.90
13409;DHT22;6775;49.574;11.170;2023-05-28T07:20:49;18.20;99.90
13409;DHT22;6775;49.574;11.170;2023-05-28T07:23:18;18.30;99.90
13409;DHT22;6775;49.574;11.170;2023-05-28T07:25:46;18.40;99.90
13409;DHT22;6775;49.574;11.170;2023-05-28T07:28:15;18.60;99.90
13409;DHT22;6775;49.574;11.170;2023-05-28T07:30:43;18.80;99.60
13409;DHT22;6775;49.574;11.170;2023-05-28T07:33:11;18.90;99.00
13409;DHT22;6775;49.574;11.170;2023-05-28T07:35:39;19.00;98.70
13409;DHT22;6775;49.574;11.170;2023-05-28T07:38:07;19.10;97.80
13409;DHT22;6775;49.574;11.170;2023-05-28T07:40:37;19.20;97.10
13409;DHT22;6775;49.574;11.170;2023-05-28T07:43:05;19.30;97.10
13409;DHT22;6775;49.574;11.170;2023-05-28T07:45:34;19.50;97.40
13409;DHT22;6775;49.574;11.170;2023-05-28T07:48:02;19.60;96.40
13409;DHT22;6775;49.574;11.170;2023-05-28T07:50:30;19.70;96.10
13409;DHT22;6775;49.574;11.170;2023-05-28T07:52:57;19.80;95.60
13409;DHT22;6775;49.574;11.170;2023-05-28T07:55:25;19.90;94.80
13409;DHT22;6775;49.574;11.170;2023-05-28T07:57:53;20.00;94.70
13409;DHT22;6775;49.574;11.170;2023-05-28T08:00:21;20.20;94.30
13409;DHT22;6775;49.574;11.170;2023-05-28T08:02:51;20.30;94.00
13409;DHT22;6775;49.574;11.170;2023-05-28T08:05:19;20.50;93.60
13409;DHT22;6775;49.574;11.170;2023-05-28T08:07:47;20.60;93.10
13409;DHT22;6775;49.574;11.170;2023-05-28T08:10:15;20.70;92.90
13409;DHT22;6775;49.574;11.170;2023-05-28T08:12:43;20.80;92.20
13409;DHT22;6775;49.574;11.170;2023-05-28T08:15:11;20.90;91.20
13409;DHT22;6775;49.574;11.170;2023-05-28T08:17:39;20.90;91.20
13409;DHT22;6775;49.574;11.170;2023-05-28T08:20:09;21.00;91.60
13409;DHT22;6775;49.574;11.170;2023-05-28T08:22:38;21.20;91.10
13409;DHT22;6775;49.574;11.170;2023-05-28T08:25:07;21.20;90.80
13409;DHT22;6775;49.574;11.170;2023-05-28T08:27:34;21.40;90.70
13409;DHT22;6775;49.574;11.170;2023-05-28T08:30:03;21.50;90.00
13409;DHT22;6775;49.574;11.170;2023-05-28T08:32:31;21.60;89.90
13409;DHT22;6775;49.574;11.170;2023-05-28T08:34:59;21.70;87.20
13409;DHT22;6775;49.574;11.170;2023-05-28T08:37:29;21.70;88.20
13409;DHT22;6775;49.574;11.170;2023-05-28T08:39:56;21.80;87.30
13409;DHT22;6775;49.574;11.170;2023-05-28T08:42:24;21.90;86.70
13409;DHT22;6775;49.574;11.170;2023-05-28T08:44:54;22.00;85.20
13409;DHT22;6775;49.574;11.170;2023-05-28T08:47:22;22.10;82.70
13409;DHT22;6775;49.574;11.170;2023-05-28T08:49:51;22.00;78.90
13409;DHT22;6775;49.574;11.170;2023-05-28T08:52:20;22.00;79.40
13409;DHT22;6775;49.574;11.170;2023-05-28T08:54:49;22.00;81.40
13409;DHT22;6775;49.574;11.170;2023-05-28T08:57:18;22.20;82.80
13409;DHT22;6775;49.574;11.170;2023-05-28T08:59:47;22.40;80.60
13409;DHT22;6775;49.574;11.170;2023-05-28T09:02:15;22.40;78.40
13409;DHT22;6775;49.574;11.170;2023-05-28T09:04:43;22.50;79.40
13409;DHT22;6775;49.574;11.170;2023-05-28T09:07:12;22.60;79.20
13409;DHT22;6775;49.574;11.170;2023-05-28T09:09:40;22.70;78.40
13409;DHT22;6775;49.574;11.170;2023-05-28T09:12:12;22.70;76.20
13409;DHT22;6775;49.574;11.170;2023-05-28T09:14:41;22.80;78.40
13409;DHT22;6775;49.574;11.170;2023-05-28T09:17:09;22.90;77.80
13409;DHT22;6775;49.574;11.170;2023-05-28T09:19:50;23.10;77.10
13409;DHT22;6775;49.574;11.170;2023-05-28T09:22:18;23.20;75.70
13409;DHT22;6775;49.574;11.170;2023-05-28T09:24:48;23.30;73.90
13409;DHT22;6775;49.574;11.170;2023-05-28T09:27:17;23.30;73.30
13409;DHT22;6775;49.574;11.170;2023-05-28T09:29:47;23.40;73.20
13409;DHT22;6775;49.574;11.170;2023-05-28T09:32:18;23.50;70.30
13409;DHT22;6775;49.574;11.170;2023-05-28T09:34:48;23.50;71.30
13409;DHT22;6775;49.574;11.170;2023-05-28T09:37:17;23.50;69.30
13409;DHT22;6775;49.574;11.170;2023-05-28T09:39:45;23.60;69.70
13409;DHT22;6775;49.574;11.170;2023-05-28T09:42:13;23.70;68.10
13409;DHT22;6775;49.574;11.170;2023-05-28T09:44:42;23.70;69.40
13409;DHT22;6775;49.574;11.170;2023-05-28T09:47:14;23.80;67.80
13409;DHT22;6775;49.574;11.170;2023-05-28T09:49:43;23.80;68.20
13409;DHT22;6775;49.574;11.170;2023-05-28T09:52:17;23.90;67.70
13409;DHT22;6775;49.574;11.170;2023-05-28T09:54:49;23.90;67.70
13409;DHT22;6775;49.574;11.170;2023-05-28T09:57:18;24.00;68.10
13409;DHT22;6775;49.574;11.170;2023-05-28T09:59:50;24.10;68.30
13409;DHT22;6775;49.574;11.170;2023-05-28T10:02:26;24.10;66.40
13409;DHT22;6775;49.574;11.170;2023-05-28T10:04:57;24.10;65.60
13409;DHT22;6775;49.574;11.170;2023-05-28T10:07:28;24.20;66.50
13409;DHT22;6775;49.574;11.170;2023-05-28T10:09:57;24.30;67.70
13409;DHT22;6775;49.574;11.170;2023-05-28T10:12:28;24.40;67.20
13409;DHT22;6775;49.574;11.170;2023-05-28T10:14:58;24.60;66.80
13409;DHT22;6775;49.574;11.170;2023-05-28T10:17:28;24.70;66.80
13409;DHT22;6775;49.574;11.170;2023-05-28T10:19:56;24.70;65.50
13409;DHT22;6775;49.574;11.170;2023-05-28T10:22:24;24.70;63.90
13409;DHT22;6775;49.574;11.170;2023-05-28T10:24:52;24.80;62.70
13409;DHT22;6775;49.574;11.170;2023-05-28T10:27:20;24.90;62.20
13409;DHT22;6775;49.574;11.170;2023-05-28T10:29:57;25.10;63.20
13409;DHT22;6775;49.574;11.170;2023-05-28T10:32:25;25.20;63.60
13409;DHT22;6775;49.574;11.170;2023-05-28T10:35:00;25.30;62.90
13409;DHT22;6775;49.574;11.170;2023-05-28T10:37:29;25.20;61.90
13409;DHT22;6775;49.574;11.170;2023-05-28T10:39:57;25.00;60.70
13409;DHT22;6775;49.574;11.170;2023-05-28T10:42:27;25.00;61.40
13409;DHT22;6775;49.574;11.170;2023-05-28T10:45:09;25.00;61.70
13409;DHT22;6775;49.574;11.170;2023-05-28T10:47:39;25.00;60.40
13409;DHT22;6775;49.574;11.170;2023-05-28T10:50:14;24.80;58.30
13409;DHT22;6775;49.574;11.170;2023-05-28T10:53:02;24.50;59.20
13409;DHT22;6775;49.574;11.170;2023-05-28T10:55:46;24.50;62.00
13409;DHT22;6775;49.574;11.170;2023-05-28T10:58:26;24.70;61.90
13409;DHT22;6775;49.574;11.170;2023-05-28T11:01:00;24.70;61.60
13409;DHT22;6775;49.574;11.170;2023-05-28T11:03:39;24.90;60.60
13409;DHT22;6775;49.574;11.170;2023-05-28T11:06:08;25.00;60.30
13409;DHT22;6775;49.574;11.170;2023-05-28T11:08:44;25.10;57.50
13409;DHT22;6775;49.574;11.170;2023-05-28T11:11:14;25.00;57.20
13409;DHT22;6775;49.574;11.170;2023-05-28T11:13:45;25.00;59.00
13409;DHT22;6775;49.574;11.170;2023-05-28T11:16:16;25.20;60.00
13409;DHT22;6775;49.574;11.170;2023-05-28T11:19:00;25.40;59.50
13409;DHT22;6775;49.574;11.170;2023-05-28T11:21:29;25.50;58.30
13409;DHT22;6775;49.574;11.170;2023-05-28T11:23:59;25.60;58.60
13409;DHT22;6775;49.574;11.170;2023-05-28T11:26:27;25.70;58.40
13409;DHT22;6775;49.574;11.170;2023-05-28T11:28:55;25.90;58.00
13409;DHT22;6775;49.574;11.170;2023-05-28T11:31:24;25.90;56.50
13409;DHT22;6775;49.574;11.170;2023-05-28T11:33:52;25.90;57.00
13409;DHT22;6775;49.574;11.170;2023-05-28T11:36:22;25.90;56.00
13409;DHT22;6775;49.574;11.170;2023-05-28T11:39:00;26.00;55.10
13409;DHT22;6775;49.574;11.170;2023-05-28T11:41:29;26.10;55.60
13409;DHT22;6775;49.574;11.170;2023-05-28T11:43:57;26.20;54.60
13409;DHT22;6775;49.574;11.170;2023-05-28T11:46:26;26.10;54.90
13409;DHT22;6775;49.574;11.170;2023-05-28T11:48:54;26.10;55.40
13409;DHT22;6775;49.574;11.170;2023-05-28T11:51:23;26.10;55.80
13409;DHT22;6775;49.574;11.170;2023-05-28T11:53:51;26.10;55.70
13409;DHT22;6775;49.574;11.170;2023-05-28T11:56:19;26.20;56.00
13409;DHT22;6775;49.574;11.170;2023-05-28T11:58:47;26.30;56.40
13409;DHT22;6775;49.574;11.170;2023-05-28T12:01:16;26.40;55.60
13409;DHT22;6775;49.574;11.170;2023-05-28T12:03:45;26.50;56.10
13409;DHT22;6775;49.574;11.170;2023-05-28T12:06:13;26.60;55.80
13409;DHT22;6775;49.574;11.170;2023-05-28T12:09:03;26.70;54.60
13409;DHT22;6775;49.574;11.170;2023-05-28T12:11:30;26.60;53.10
13409;DHT22;6775;49.574;11.170;2023-05-28T12:14:08;26.40;52.20
13409;DHT22;6775;49.574;11.170;2023-05-28T12:16:44;26.30;52.80
13409;DHT22;6775;49.574;11.170;2023-05-28T12:19:16;26.20;52.20
13409;DHT22;6775;49.574;11.170;2023-05-28T12:21:44;26.20;54.50
13409;DHT22;6775;49.574;11.170;2023-05-28T12:24:13;26.20;53.10
13409;DHT22;6775;49.574;11.170;2023-05-28T12:26:41;26.20;53.20
13409;DHT22;6775;49.574;11.170;2023-05-28T12:29:09;26.20;52.40
13409;DHT22;6775;49.574;11.170;2023-05-28T12:31:37;26.10;51.80
13409;DHT22;6775;49.574;11.170;2023-05-28T12:34:05;26.10;52.20
13409;DHT22;6775;49.574;11.170;2023-05-28T12:36:34;26.20;53.60
13409;DHT22;6775;49.574;11.170;2023-05-28T12:39:02;26.30;54.00
13409;DHT22;6775;49.574;11.170;2023-05-28T12:41:31;26.30;53.70
13409;DHT22;6775;49.574;11.170;2023-05-28T12:43:59;26.30;52.90
13409;DHT22;6775;49.574;11.170;2023-05-28T12:46:27;26.30;53.20
13409;DHT22;6775;49.574;11.170;2023-05-28T12:48:54;26.30;53.40
13409;DHT22;6775;49.574;11.170;2023-05-28T12:51:22;26.30;53.20
13409;DHT22;6775;49.574;11.170;2023-05-28T12:53:52;26.20;51.20
13409;DHT22;6775;49.574;11.170;2023-05-28T12:56:20;26.30;52.50
13409;DHT22;6775;49.574;11.170;2023-05-28T12:58:48;26.30;53.10
13409;DHT22;6775;49.574;11.170;2023-05-28T13:01:17;26.40;53.20
13409;DHT22;6775;49.574;11.170;2023-05-28T13:03:45;26.30;51.80
13409;DHT22;6775;49.574;11.170;2023-05-28T13:06:13;26.40;52.60
13409;DHT22;6775;49.574;11.170;2023-05-28T13:08:41;26.40;52.60
13409;DHT22;6775;49.574;11.170;2023-05-28T13:11:10;26.50;52.50
13409;DHT22;6775;49.574;11.170;2023-05-28T13:13:38;26.50;51.70
13409;DHT22;6775;49.574;11.170;2023-05-28T13:16:06;26.40;51.60
13409;DHT22;6775;49.574;11.170;2023-05-28T13:18:34;26.40;53.10
13409;DHT22;6775;49.574;11.170;2023-05-28T13:21:02;26.50;53.10
13409;DHT22;6775;49.574;11.170;2023-05-28T13:23:30;26.50;52.60
13409;DHT22;6775;49.574;11.170;2023-05-28T13:25:58;26.50;53.20
13409;DHT22;6775;49.574;11.170;2023-05-28T13:28:27;26.50;50.60
13409;DHT22;6775;49.574;11.170;2023-05-28T13:30:55;26.30;51.50
13409;DHT22;6775;49.574;11.170;2023-05-28T13:33:23;26.10;55.00
13409;DHT22;6775;49.574;11.170;2023-05-28T13:35:50;26.00;55.30
13409;DHT22;6775;49.574;11.170;2023-05-28T13:38:18;25.80;54.20
13409;DHT22;6775;49.574;11.170;2023-05-28T13:40:46;25.70;56.50
13409;DHT22;6775;49.574;11.170;2023-05-28T13:43:14;25.70;56.90
13409;DHT22;6775;49.574;11.170;2023-05-28T13:45:43;25.60;56.10
13409;DHT22;6775;49.574;11.170;2023-05-28T13:48:12;25.70;56.80
13409;DHT22;6775;49.574;11.170;2023-05-28T13:50:40;25.80;57.40
13409;DHT22;6775;49.574;11.170;2023-05-28T13:53:08;26.00;57.60
13409;DHT22;6775;49.574;11.170;2023-05-28T13:55:36;26.00;56.40
13409;DHT22;6775;49.574;11.170;2023-05-28T13:58:04;26.00;56.20
13409;DHT22;6775;49.574;11.170;2023-05-28T14:00:31;26.10;55.90
13409;DHT22;6775;49.574;11.170;2023-05-28T14:03:06;26.10;56.40
13409;DHT22;6775;49.574;11.170;2023-05-28T14:05:35;26.20;56.30
13409;DHT22;6775;49.574;11.170;2023-05-28T14:08:03;26.20;55.70
13409;DHT22;6775;49.574;11.170;2023-05-28T14:10:31;26.20;56.70
13409;DHT22;6775;49.574;11.170;2023-05-28T14:12:59;26.10;56.40
13409;DHT22;6775;49.574;11.170;2023-05-28T14:15:27;26.10;57.00
13409;DHT22;6775;49.574;11.170;2023-05-28T14:17:55;26.10;57.40
13409;DHT22;6775;49.574;11.170;2023-05-28T14:20:24;26.00;57.30
13409;DHT22;6775;49.574;11.170;2023-05-28T14:22:52;26.10;56.80
13409;DHT22;6775;49.574;11.170;2023-05-28T14:25:20;26.10;57.00
13409;DHT22;6775;49.574;11.170;2023-05-28T14:27:48;26.00;56.50
13409;DHT22;6775;49.574;11.170;2023-05-28T14:30:29;26.00;56.30
13409;DHT22;6775;49.574;11.170;2023-05-28T14:32:57;25.90;56.60
13409;DHT22;6775;49.574;11.170;2023-05-28T14:35:26;25.90;55.90
13409;DHT22;6775;49.574;11.170;2023-05-28T14:37:54;25.80;56.20
13409;DHT22;6775;49.574;11.170;2023-05-28T14:40:22;25.80;57.30
13409;DHT22;6775;49.574;11.170;2023-05-28T14:42:49;25.80;57.30
13409;DHT22;6775;49.574;11.170;2023-05-28T14:45:17;25.80;57.30
13409;DHT22;6775;49.574;11.170;2023-05-28T14:47:46;25.80;57.00
13409;DHT22;6775;49.574;11.170;2023-05-28T14:50:14;25.70;57.40
13409;DHT22;6775;49.574;11.170;2023-05-28T14:52:43;25.80;57.10
13409;DHT22;6775;49.574;11.170;2023-05-28T14:55:11;25.70;57.50
13409;DHT22;6775;49.574;11.170;2023-05-28T14:57:40;25.70;57.70
13409;DHT22;6775;49.574;11.170;2023-05-28T15:00:08;25.60;57.30
13409;DHT22;6775;49.574;11.170;2023-05-28T15:02:37;25.60;56.50
13409;DHT22;6775;49.574;11.170;2023-05-28T15:05:05;25.50;57.20
13409;DHT22;6775;49.574;11.170;2023-05-28T15:07:33;25.50;56.80
13409;DHT22;6775;49.574;11.170;2023-05-28T15:10:03;25.50;57.10
13409;DHT22;6775;49.574;11.170;2023-05-28T15:12:32;25.40;57.60
13409;DHT22;6775;49.574;11.170;2023-05-28T15:14:59;25.40;58.10
13409;DHT22;6775;49.574;11.170;2023-05-28T15:17:27;25.40;58.90
13409;DHT22;6775;49.574;11.170;2023-05-28T15:19:55;25.30;57.80
13409;DHT22;6775;49.574;11.170;2023-05-28T15:22:24;25.30;57.70
13409;DHT22;6775;49.574;11.170;2023-05-28T15:24:52;25.20;57.60
13409;DHT22;6775;49.574;11.170;2023-05-28T15:27:21;25.20;57.90
13409;DHT22;6775;49.574;11.170;2023-05-28T15:29:50;25.10;57.80
13409;DHT22;6775;49.574;11.170;2023-05-28T15:32:18;25.10;58.40
13409;DHT22;6775;49.574;11.170;2023-05-28T15:34:46;25.10;57.90
13409;DHT22;6775;49.574;11.170;2023-05-28T15:37:15;25.10;58.10
13409;DHT22;6775;49.574;11.170;2023-05-28T15:39:43;25.10;57.70
13409;DHT22;6775;49.574;11.170;2023-05-28T15:42:11;25.10;57.60